Kennells Beach, North Carolina
Current Conditions -  °F | °C
As of 1:54 PM on Monday 20 Oct 2014 (Local Time) from KEWN Reporting Station
Few Clouds Few Clouds  
Wind Chill: 72°   Ceiling: Unl
Heat Index: 72°   Visibility: 10mi
Dew Point: 51°   Wind: 8mph
Humidity: 48%   Direction: 210°SSW
Pressure: 30.09"   Gusts: NA
Location:  35.1354°N, 76.8853°W
Report Text: KEWN 201754Z 21007KT 10SM FEW044 22/11 A3009 RMK AO2 SLP188 T02220106 10228 20067 58033
Loading
Personal Weather Stations






























Interactive Weather Map
Tropical Storm Tracking
New forecast layout! Learn more

10-Day Weather Forecast

Advertisements
Track Severe Weather on mobile